createdAt,value
2023-04-23T00:00:14.856Z,100.00
2023-04-23T00:02:46.894Z,100.00
2023-04-23T00:05:16.770Z,100.00
2023-04-23T00:07:47.350Z,100.00
2023-04-23T00:10:16.270Z,100.00
2023-04-23T00:12:45.771Z,100.00
2023-04-23T00:15:16.162Z,100.00
2023-04-23T00:17:44.815Z,100.00
2023-04-23T00:20:13.756Z,100.00
2023-04-23T00:22:42.392Z,100.00
2023-04-23T00:25:13.242Z,100.00
2023-04-23T00:27:41.838Z,100.00
2023-04-23T00:30:11.217Z,100.00
2023-04-23T00:32:40.033Z,100.00
2023-04-23T00:35:09.602Z,100.00
2023-04-23T00:37:38.218Z,100.00
2023-04-23T00:40:08.414Z,100.00
2023-04-23T00:42:42.136Z,100.00
2023-04-23T00:45:12.365Z,100.00
2023-04-23T00:47:42.464Z,100.00
2023-04-23T00:50:11.624Z,100.00
2023-04-23T00:52:40.815Z,100.00
2023-04-23T00:55:10.097Z,100.00
2023-04-23T00:57:40.869Z,100.00
2023-04-23T01:00:11.626Z,100.00
2023-04-23T01:02:40.379Z,100.00
2023-04-23T01:05:10.616Z,100.00
2023-04-23T01:07:39.937Z,100.00
2023-04-23T01:10:10.800Z,100.00
2023-04-23T01:12:41.251Z,100.00
2023-04-23T01:15:11.198Z,100.00
2023-04-23T01:17:39.968Z,100.00
2023-04-23T01:20:10.116Z,100.00
2023-04-23T01:22:40.783Z,100.00
2023-04-23T01:25:10.784Z,100.00
2023-04-23T01:27:40.468Z,100.00
2023-04-23T01:30:10.921Z,100.00
2023-04-23T01:32:40.413Z,100.00
2023-04-23T01:35:13.240Z,100.00
2023-04-23T01:37:44.657Z,100.00
2023-04-23T01:40:13.706Z,100.00
2023-04-23T01:42:42.398Z,100.00
2023-04-23T01:45:11.827Z,100.00
2023-04-23T01:47:41.497Z,100.00
2023-04-23T01:50:10.954Z,100.00
2023-04-23T01:52:40.394Z,100.00
2023-04-23T01:55:11.073Z,100.00
2023-04-23T01:57:39.915Z,100.00
2023-04-23T02:00:11.524Z,100.00
2023-04-23T02:02:45.041Z,100.00
2023-04-23T02:05:16.586Z,100.00
2023-04-23T02:07:46.331Z,100.00
2023-04-23T02:10:18.598Z,100.00
2023-04-23T02:12:47.817Z,100.00
2023-04-23T02:15:17.578Z,100.00
2023-04-23T02:17:46.288Z,100.00
2023-04-23T02:20:15.283Z,100.00
2023-04-23T02:22:44.910Z,100.00
2023-04-23T02:25:15.694Z,100.00
2023-04-23T02:27:46.006Z,100.00
2023-04-23T02:30:14.906Z,100.00
2023-04-23T02:32:44.165Z,100.00
2023-04-23T02:35:13.385Z,100.00
2023-04-23T02:37:42.539Z,100.00
2023-04-23T02:40:12.357Z,100.00
2023-04-23T02:42:43.224Z,100.00
2023-04-23T02:45:13.827Z,100.00
2023-04-23T02:47:42.491Z,100.00
2023-04-23T02:50:11.513Z,100.00
2023-04-23T02:52:40.492Z,100.00
2023-04-23T02:55:10.865Z,100.00
2023-04-23T02:57:40.282Z,100.00
2023-04-23T03:00:12.326Z,100.00
2023-04-23T03:02:45.478Z,100.00
2023-04-23T03:05:14.267Z,100.00
2023-04-23T03:07:43.753Z,100.00
2023-04-23T03:10:12.837Z,100.00
2023-04-23T03:12:41.446Z,100.00
2023-04-23T03:15:12.102Z,100.00
2023-04-23T03:17:40.863Z,100.00
2023-04-23T03:20:12.496Z,100.00
2023-04-23T03:22:42.051Z,100.00
2023-04-23T03:25:11.228Z,100.00
2023-04-23T03:27:41.038Z,100.00
2023-04-23T03:30:10.947Z,100.00
2023-04-23T03:32:40.212Z,100.00
2023-04-23T03:35:11.099Z,100.00
2023-04-23T03:37:43.460Z,100.00
2023-04-23T03:40:12.679Z,100.00
2023-04-23T03:42:43.749Z,100.00
2023-04-23T03:45:16.718Z,100.00
2023-04-23T03:47:46.128Z,100.00
2023-04-23T03:50:17.492Z,100.00
2023-04-23T03:52:48.951Z,100.00
2023-04-23T03:55:31.981Z,100.00
2023-04-23T03:58:01.737Z,100.00
2023-04-23T04:00:38.561Z,100.00
2023-04-23T04:03:08.535Z,100.00
2023-04-23T04:05:38.732Z,100.00
2023-04-23T04:08:07.111Z,100.00
2023-04-23T04:10:35.983Z,100.00
2023-04-23T04:13:05.778Z,100.00
2023-04-23T04:15:34.500Z,100.00
2023-04-23T04:18:03.149Z,100.00
2023-04-23T04:20:31.729Z,100.00
2023-04-23T04:23:01.348Z,100.00
2023-04-23T04:25:30.576Z,100.00
2023-04-23T04:27:59.261Z,100.00
2023-04-23T04:30:27.921Z,100.00
2023-04-23T04:32:56.590Z,100.00
2023-04-23T04:35:25.761Z,100.00
2023-04-23T04:37:55.444Z,100.00
2023-04-23T04:40:26.473Z,100.00
2023-04-23T04:42:55.315Z,100.00
2023-04-23T04:45:25.797Z,100.00
2023-04-23T04:47:54.427Z,100.00
2023-04-23T04:50:23.169Z,100.00
2023-04-23T04:52:51.870Z,100.00
2023-04-23T04:55:20.786Z,100.00
2023-04-23T04:57:50.524Z,100.00
2023-04-23T05:00:29.429Z,100.00
2023-04-23T05:02:59.060Z,100.00
2023-04-23T05:05:29.199Z,100.00
2023-04-23T05:08:02.063Z,100.00
2023-04-23T05:10:31.253Z,100.00
2023-04-23T05:13:02.065Z,100.00
2023-04-23T05:15:30.760Z,100.00
2023-04-23T05:17:59.484Z,100.00
2023-04-23T05:20:28.072Z,100.00
2023-04-23T05:22:56.889Z,100.00
2023-04-23T05:25:25.773Z,100.00
2023-04-23T05:27:54.396Z,100.00
2023-04-23T05:30:24.817Z,100.00
2023-04-23T05:32:53.272Z,100.00
2023-04-23T05:35:22.075Z,100.00
2023-04-23T05:37:51.409Z,100.00
2023-04-23T05:40:20.119Z,100.00
2023-04-23T05:42:49.131Z,100.00
2023-04-23T05:45:17.846Z,100.00
2023-04-23T05:47:47.758Z,100.00
2023-04-23T05:50:16.389Z,100.00
2023-04-23T05:52:45.064Z,100.00
2023-04-23T05:55:15.650Z,100.00
2023-04-23T05:57:44.264Z,100.00
2023-04-23T06:00:13.740Z,100.00
2023-04-23T06:02:43.045Z,100.00
2023-04-23T06:05:13.997Z,100.00
2023-04-23T06:07:43.243Z,100.00
2023-04-23T06:10:12.724Z,100.00
2023-04-23T06:12:42.296Z,100.00
2023-04-23T06:15:11.715Z,100.00
2023-04-23T06:17:40.527Z,100.00
2023-04-23T06:20:11.837Z,100.00
2023-04-23T06:22:41.836Z,100.00
2023-04-23T06:25:11.133Z,100.00
2023-04-23T06:27:39.704Z,100.00
2023-04-23T06:30:15.921Z,100.00
2023-04-23T06:32:45.731Z,100.00
2023-04-23T06:35:14.388Z,100.00
2023-04-23T06:37:44.290Z,100.00
2023-04-23T06:40:13.361Z,100.00
2023-04-23T06:42:41.999Z,100.00
2023-04-23T06:45:16.453Z,100.00
2023-04-23T06:47:45.132Z,100.00
2023-04-23T06:50:13.817Z,100.00
2023-04-23T06:52:44.072Z,100.00
2023-04-23T06:55:13.206Z,100.00
2023-04-23T06:57:41.567Z,100.00
2023-04-23T07:00:12.815Z,100.00
2023-04-23T07:02:43.944Z,100.00
2023-04-23T07:05:12.933Z,100.00
2023-04-23T07:07:43.557Z,100.00
2023-04-23T07:10:15.528Z,100.00
2023-04-23T07:12:46.009Z,100.00
2023-04-23T07:15:14.611Z,100.00
2023-04-23T07:17:43.077Z,100.00
2023-04-23T07:20:12.205Z,100.00
2023-04-23T07:22:41.301Z,100.00
2023-04-23T07:25:11.676Z,100.00
2023-04-23T07:27:40.284Z,100.00
2023-04-23T07:30:09.934Z,100.00
2023-04-23T07:32:38.619Z,100.00
2023-04-23T07:35:10.387Z,100.00
2023-04-23T07:37:39.096Z,100.00
2023-04-23T07:40:10.755Z,100.00
2023-04-23T07:42:39.508Z,100.00
2023-04-23T07:45:09.236Z,100.00
2023-04-23T07:47:37.538Z,100.00
2023-04-23T07:50:07.399Z,100.00
2023-04-23T07:52:36.259Z,100.00
2023-04-23T07:55:05.180Z,100.00
2023-04-23T07:57:35.131Z,100.00
2023-04-23T08:00:04.479Z,100.00
2023-04-23T08:02:40.506Z,100.00
2023-04-23T08:05:10.192Z,100.00
2023-04-23T08:07:38.505Z,100.00
2023-04-23T08:10:08.129Z,100.00
2023-04-23T08:12:38.250Z,100.00
2023-04-23T08:15:08.436Z,100.00
2023-04-23T08:17:41.665Z,100.00
2023-04-23T08:20:11.411Z,100.00
2023-04-23T08:22:39.996Z,100.00
2023-04-23T08:25:09.411Z,100.00
2023-04-23T08:27:39.586Z,100.00
2023-04-23T08:30:09.653Z,100.00
2023-04-23T08:32:40.139Z,100.00
2023-04-23T08:35:09.483Z,100.00
2023-04-23T08:37:39.091Z,100.00
2023-04-23T08:40:09.561Z,100.00
2023-04-23T08:42:46.322Z,100.00
2023-04-23T08:45:15.726Z,100.00
2023-04-23T08:47:44.949Z,100.00
2023-04-23T08:50:16.488Z,100.00
2023-04-23T08:52:51.614Z,100.00
2023-04-23T08:55:21.637Z,100.00
2023-04-23T08:57:52.455Z,100.00
2023-04-23T09:00:23.180Z,100.00
2023-04-23T09:02:52.142Z,100.00
2023-04-23T09:05:20.946Z,100.00
2023-04-23T09:07:49.536Z,100.00
2023-04-23T09:10:18.737Z,100.00
2023-04-23T09:12:48.184Z,100.00
2023-04-23T09:15:18.931Z,100.00
2023-04-23T09:17:49.968Z,100.00
2023-04-23T09:20:18.799Z,100.00
2023-04-23T09:22:48.383Z,100.00
2023-04-23T09:25:19.220Z,100.00
2023-04-23T09:27:48.982Z,100.00
2023-04-23T09:30:19.710Z,100.00
2023-04-23T09:32:49.590Z,100.00
2023-04-23T09:35:20.843Z,100.00
2023-04-23T09:37:52.678Z,100.00
2023-04-23T09:40:24.890Z,100.00
2023-04-23T09:42:55.175Z,100.00
2023-04-23T09:45:26.198Z,100.00
2023-04-23T09:47:56.603Z,100.00
2023-04-23T09:50:34.994Z,100.00
2023-04-23T09:53:04.174Z,100.00
2023-04-23T09:55:38.539Z,100.00
2023-04-23T09:58:12.045Z,100.00
2023-04-23T10:00:42.732Z,100.00
2023-04-23T10:03:12.131Z,100.00
2023-04-23T10:05:59.435Z,100.00
2023-04-23T10:08:30.127Z,100.00
2023-04-23T10:11:10.158Z,100.00
2023-04-23T10:13:47.998Z,100.00
2023-04-23T10:16:24.355Z,100.00
2023-04-23T10:18:57.874Z,100.00
2023-04-23T10:21:36.692Z,100.00
2023-04-23T10:24:20.120Z,100.00
2023-04-23T10:26:51.040Z,100.00
2023-04-23T10:29:25.349Z,100.00
2023-04-23T10:31:57.620Z,100.00
2023-04-23T10:34:27.584Z,100.00
2023-04-23T10:36:59.267Z,100.00
2023-04-23T10:39:31.145Z,100.00
2023-04-23T10:42:01.158Z,100.00
2023-04-23T10:47:17.024Z,100.00
2023-04-23T10:49:45.893Z,100.00
2023-04-23T10:52:21.471Z,100.00
2023-04-23T10:54:59.901Z,100.00
2023-04-23T10:57:28.549Z,100.00
2023-04-23T10:59:59.190Z,100.00
2023-04-23T11:02:45.178Z,100.00
2023-04-23T11:05:15.452Z,100.00
2023-04-23T11:07:44.069Z,100.00
2023-04-23T11:10:16.508Z,96.16
2023-04-23T11:12:46.016Z,94.96
2023-04-23T11:15:17.205Z,97.96
2023-04-23T11:18:03.137Z,100.00
2023-04-23T11:20:31.769Z,98.04
2023-04-23T11:23:00.491Z,92.55
2023-04-23T11:25:30.528Z,97.05
2023-04-23T11:28:00.418Z,100.00
2023-04-23T11:30:31.234Z,100.00
2023-04-23T11:33:01.427Z,93.00
2023-04-23T11:35:39.643Z,89.31
2023-04-23T11:38:11.088Z,85.92
2023-04-23T11:40:40.688Z,95.46
2023-04-23T11:43:09.664Z,99.24
2023-04-23T11:45:38.717Z,92.79
2023-04-23T11:48:08.952Z,88.06
2023-04-23T11:50:39.307Z,92.07
2023-04-23T11:53:09.951Z,92.52
2023-04-23T11:55:43.923Z,96.07
2023-04-23T11:58:12.634Z,90.54
2023-04-23T12:00:41.233Z,95.86
2023-04-23T12:03:09.759Z,96.22
2023-04-23T12:05:43.537Z,90.05
2023-04-23T12:08:13.759Z,81.12
2023-04-23T12:10:50.153Z,83.57
2023-04-23T12:13:20.436Z,88.02
2023-04-23T12:15:50.289Z,89.58
2023-04-23T12:18:20.485Z,89.30
2023-04-23T12:20:50.072Z,83.24
2023-04-23T12:23:18.715Z,86.22
2023-04-23T12:25:47.539Z,74.14
2023-04-23T12:28:16.410Z,70.97
2023-04-23T12:30:46.120Z,72.58
2023-04-23T12:33:14.841Z,77.64
2023-04-23T12:35:44.807Z,78.57
2023-04-23T12:38:25.253Z,85.54
2023-04-23T12:40:54.075Z,85.98
2023-04-23T12:43:23.005Z,72.96
2023-04-23T12:45:52.104Z,84.15
2023-04-23T12:48:20.930Z,67.34
2023-04-23T12:50:50.009Z,69.45
2023-04-23T12:53:20.670Z,65.56
2023-04-23T12:55:50.505Z,68.30
2023-04-23T12:58:19.250Z,71.73
2023-04-23T13:00:48.148Z,62.10
2023-04-23T13:03:17.733Z,61.59
2023-04-23T13:05:46.520Z,67.21
2023-04-23T13:08:15.085Z,68.07
2023-04-23T13:10:44.909Z,62.67
2023-04-23T13:13:14.866Z,60.49
2023-04-23T13:15:44.253Z,64.79
2023-04-23T13:18:12.948Z,70.02
2023-04-23T13:20:41.267Z,74.50
2023-04-23T13:23:11.428Z,68.00
2023-04-23T13:25:40.579Z,75.81
2023-04-23T13:28:09.298Z,73.97
2023-04-23T13:30:39.430Z,75.96
2023-04-23T13:33:08.060Z,80.71
2023-04-23T13:35:37.752Z,85.67
2023-04-23T13:38:06.185Z,81.50
2023-04-23T13:40:35.528Z,79.58
2023-04-23T13:43:04.380Z,78.99
2023-04-23T13:45:33.332Z,76.11
2023-04-23T13:48:05.032Z,90.73
2023-04-23T13:50:33.774Z,78.81
2023-04-23T13:53:02.564Z,80.94
2023-04-23T13:55:32.603Z,79.90
2023-04-23T13:58:01.051Z,73.63
2023-04-23T14:00:31.122Z,75.88
2023-04-23T14:02:59.907Z,65.02
2023-04-23T14:05:30.175Z,67.53
2023-04-23T14:08:00.133Z,61.00
2023-04-23T14:10:29.320Z,64.59
2023-04-23T14:12:58.530Z,71.30
2023-04-23T14:15:27.550Z,73.90
2023-04-23T14:17:56.304Z,74.87
2023-04-23T14:20:25.405Z,84.22
2023-04-23T14:23:12.069Z,82.88
2023-04-23T14:25:46.815Z,79.38
2023-04-23T14:28:29.738Z,79.02
2023-04-23T14:30:59.237Z,73.04
2023-04-23T14:33:27.917Z,67.97
2023-04-23T14:35:56.515Z,72.23
2023-04-23T14:38:26.786Z,75.00
2023-04-23T14:40:57.373Z,79.63
2023-04-23T14:43:26.013Z,76.51
2023-04-23T14:45:54.918Z,72.80
2023-04-23T14:48:23.201Z,67.65
2023-04-23T14:50:51.908Z,70.52
2023-04-23T14:53:21.494Z,64.49
2023-04-23T14:55:51.564Z,74.36
2023-04-23T14:58:20.449Z,74.11
2023-04-23T15:00:50.967Z,76.40
2023-04-23T15:03:19.509Z,72.58
2023-04-23T15:05:47.989Z,66.27
2023-04-23T15:08:16.615Z,65.61
2023-04-23T15:10:45.340Z,66.67
2023-04-23T15:13:40.364Z,71.14
2023-04-23T15:16:40.556Z,71.70
2023-04-23T15:19:14.911Z,70.59
2023-04-23T15:21:43.595Z,63.62
2023-04-23T15:24:12.234Z,69.13
2023-04-23T15:26:41.158Z,68.48
2023-04-23T15:29:11.395Z,67.42
2023-04-23T15:31:40.106Z,64.97
2023-04-23T15:34:09.570Z,63.56
2023-04-23T15:36:38.797Z,66.45
2023-04-23T15:39:09.653Z,63.69
2023-04-23T15:41:40.583Z,61.83
2023-04-23T15:44:12.641Z,61.13
2023-04-23T15:46:41.355Z,65.67
2023-04-23T15:49:10.283Z,62.86
2023-04-23T15:51:39.317Z,67.11
2023-04-23T15:54:09.202Z,62.39
2023-04-23T15:56:38.280Z,66.66
2023-04-23T15:59:07.758Z,62.74
2023-04-23T16:01:37.947Z,61.48
2023-04-23T16:04:10.847Z,61.71
2023-04-23T16:06:40.738Z,71.01
2023-04-23T16:09:09.707Z,75.90
2023-04-23T16:11:39.376Z,74.68
2023-04-23T16:14:09.277Z,74.40
2023-04-23T16:16:39.771Z,86.48
2023-04-23T16:19:08.568Z,89.02
2023-04-23T16:21:37.229Z,91.97
2023-04-23T16:24:07.605Z,95.35
2023-04-23T16:26:37.410Z,94.23
2023-04-23T16:31:41.857Z,97.27
2023-04-23T16:34:10.482Z,96.25
2023-04-23T16:36:39.381Z,98.25
2023-04-23T16:39:07.899Z,95.44
2023-04-23T16:41:36.695Z,95.74
2023-04-23T16:44:05.499Z,97.29
2023-04-23T16:46:34.413Z,100.00
2023-04-23T16:49:04.515Z,100.00
2023-04-23T16:51:33.252Z,100.00
2023-04-23T16:54:02.116Z,100.00
2023-04-23T16:56:31.072Z,100.00
2023-04-23T16:59:00.300Z,100.00
2023-04-23T17:01:29.316Z,100.00
2023-04-23T17:03:58.107Z,100.00
2023-04-23T17:06:30.662Z,100.00
2023-04-23T17:09:01.201Z,100.00
2023-04-23T17:11:31.201Z,100.00
2023-04-23T17:14:00.069Z,100.00
2023-04-23T17:16:29.153Z,100.00
2023-04-23T17:18:58.224Z,100.00
2023-04-23T17:21:28.556Z,100.00
2023-04-23T17:23:57.235Z,100.00
2023-04-23T17:26:26.475Z,100.00
2023-04-23T17:28:55.195Z,100.00
2023-04-23T17:31:23.816Z,100.00
2023-04-23T17:33:53.645Z,100.00
2023-04-23T17:36:22.322Z,100.00
2023-04-23T17:38:52.313Z,100.00
2023-04-23T17:41:22.719Z,100.00
2023-04-23T17:43:51.675Z,100.00
2023-04-23T17:46:20.310Z,100.00
2023-04-23T17:48:49.234Z,100.00
2023-04-23T17:51:18.292Z,100.00
2023-04-23T17:53:48.776Z,100.00
2023-04-23T17:56:18.770Z,100.00
2023-04-23T17:58:47.722Z,100.00
2023-04-23T18:01:17.785Z,100.00
2023-04-23T18:03:49.053Z,100.00
2023-04-23T18:06:17.815Z,100.00
2023-04-23T18:08:46.538Z,100.00
2023-04-23T18:11:15.296Z,100.00
2023-04-23T18:13:45.608Z,100.00
2023-04-23T18:16:14.345Z,100.00
2023-04-23T18:18:43.002Z,100.00
2023-04-23T18:21:13.390Z,100.00
2023-04-23T18:23:42.058Z,100.00
2023-04-23T18:26:10.682Z,100.00
2023-04-23T18:28:39.335Z,100.00
2023-04-23T18:31:09.635Z,100.00
2023-04-23T18:33:44.081Z,100.00
2023-04-23T18:36:24.997Z,100.00
2023-04-23T18:38:53.894Z,100.00
2023-04-23T18:41:22.476Z,100.00
2023-04-23T18:43:51.142Z,100.00
2023-04-23T18:46:23.005Z,100.00
2023-04-23T18:49:01.032Z,100.00
2023-04-23T18:51:38.120Z,100.00
2023-04-23T18:54:06.899Z,100.00
2023-04-23T18:56:35.711Z,100.00
2023-04-23T18:59:04.494Z,100.00
2023-04-23T19:01:34.697Z,100.00
2023-04-23T19:04:03.970Z,100.00
2023-04-23T19:06:32.693Z,100.00
2023-04-23T19:09:02.365Z,100.00
2023-04-23T19:11:35.036Z,100.00
2023-04-23T19:14:03.806Z,100.00
2023-04-23T19:16:34.107Z,100.00
2023-04-23T19:19:02.956Z,100.00
2023-04-23T19:21:31.705Z,100.00
2023-04-23T19:24:00.471Z,100.00
2023-04-23T19:26:29.641Z,100.00
2023-04-23T19:28:58.282Z,100.00
2023-04-23T19:31:26.984Z,100.00
2023-04-23T19:33:57.935Z,100.00
2023-04-23T19:36:26.407Z,100.00
2023-04-23T19:38:55.047Z,100.00
2023-04-23T19:41:23.798Z,100.00
2023-04-23T19:43:53.418Z,100.00
2023-04-23T19:46:22.444Z,100.00
2023-04-23T19:48:51.090Z,100.00
2023-04-23T19:51:21.925Z,100.00
2023-04-23T19:53:50.534Z,100.00
2023-04-23T19:56:19.226Z,100.00
2023-04-23T19:58:50.865Z,100.00
2023-04-23T20:01:20.985Z,100.00
2023-04-23T20:03:52.042Z,100.00
2023-04-23T20:06:22.232Z,100.00
2023-04-23T20:09:07.520Z,100.00
2023-04-23T20:11:37.321Z,100.00
2023-04-23T20:14:06.588Z,100.00
2023-04-23T20:16:36.202Z,100.00
2023-04-23T20:19:07.214Z,100.00
2023-04-23T20:21:37.615Z,100.00
2023-04-23T20:24:08.411Z,100.00
2023-04-23T20:26:37.502Z,100.00
2023-04-23T20:29:06.651Z,100.00
2023-04-23T20:31:35.493Z,100.00
2023-04-23T20:34:04.209Z,100.00
2023-04-23T20:36:33.650Z,100.00
2023-04-23T20:39:05.257Z,100.00
2023-04-23T20:41:36.748Z,100.00
2023-04-23T20:44:09.037Z,100.00
2023-04-23T20:46:38.485Z,100.00
2023-04-23T20:49:07.503Z,100.00
2023-04-23T20:51:35.928Z,100.00
2023-04-23T20:54:06.685Z,100.00
2023-04-23T20:56:35.311Z,100.00
2023-04-23T20:59:04.148Z,100.00
2023-04-23T21:01:34.914Z,100.00
2023-04-23T21:04:04.032Z,100.00
2023-04-23T21:06:33.514Z,100.00
2023-04-23T21:09:02.532Z,100.00
2023-04-23T21:11:33.755Z,100.00
2023-04-23T21:14:02.558Z,100.00
2023-04-23T21:16:31.294Z,100.00
2023-04-23T21:19:00.034Z,100.00
2023-04-23T21:21:29.995Z,100.00
2023-04-23T21:23:59.606Z,100.00
2023-04-23T21:26:28.751Z,100.00
2023-04-23T21:28:58.922Z,100.00
2023-04-23T21:31:44.936Z,100.00
2023-04-23T21:34:14.585Z,100.00
2023-04-23T21:36:44.688Z,100.00
2023-04-23T21:39:13.469Z,100.00
2023-04-23T21:41:42.200Z,100.00
2023-04-23T21:44:12.244Z,100.00
2023-04-23T21:46:43.206Z,100.00
2023-04-23T21:49:12.003Z,100.00
2023-04-23T21:51:41.079Z,100.00
2023-04-23T21:54:09.946Z,100.00
2023-04-23T21:56:39.128Z,100.00
2023-04-23T21:59:07.736Z,100.00
2023-04-23T22:01:37.721Z,100.00
2023-04-23T22:04:07.068Z,100.00
2023-04-23T22:06:35.782Z,100.00
2023-04-23T22:09:04.378Z,100.00
2023-04-23T22:11:34.588Z,100.00
2023-04-23T22:14:03.396Z,100.00
2023-04-23T22:16:32.108Z,100.00
2023-04-23T22:19:02.459Z,100.00
2023-04-23T22:21:32.491Z,100.00
2023-04-23T22:24:03.349Z,100.00
2023-04-23T22:26:33.970Z,100.00
2023-04-23T22:29:02.739Z,100.00
2023-04-23T22:31:31.387Z,100.00
2023-04-23T22:34:01.360Z,100.00
2023-04-23T22:36:29.994Z,100.00
2023-04-23T22:38:58.573Z,100.00
2023-04-23T22:41:27.475Z,100.00
2023-04-23T22:43:56.344Z,100.00
2023-04-23T22:46:24.953Z,100.00
2023-04-23T22:48:53.520Z,100.00
2023-04-23T22:51:23.608Z,100.00
2023-04-23T22:53:52.279Z,100.00
2023-04-23T22:56:21.076Z,100.00
2023-04-23T22:58:49.654Z,100.00
2023-04-23T23:01:18.279Z,100.00
2023-04-23T23:03:46.923Z,100.00
2023-04-23T23:06:16.822Z,100.00
2023-04-23T23:08:47.045Z,100.00
2023-04-23T23:11:15.768Z,100.00
2023-04-23T23:13:45.422Z,100.00
2023-04-23T23:16:14.273Z,100.00
2023-04-23T23:18:42.959Z,100.00
2023-04-23T23:21:11.659Z,100.00
2023-04-23T23:23:40.648Z,100.00
2023-04-23T23:26:10.700Z,100.00
2023-04-23T23:28:39.348Z,100.00
2023-04-23T23:31:08.304Z,100.00
2023-04-23T23:33:39.420Z,100.00
2023-04-23T23:36:09.357Z,100.00
2023-04-23T23:38:37.963Z,100.00
2023-04-23T23:41:06.615Z,100.00
2023-04-23T23:43:36.870Z,100.00
2023-04-23T23:46:05.560Z,100.00
2023-04-23T23:48:34.247Z,100.00
2023-04-23T23:51:02.885Z,100.00
2023-04-23T23:53:31.896Z,100.00
2023-04-23T23:56:00.915Z,100.00
2023-04-23T23:58:29.787Z,100.00
